createdAt,value
2023-03-02T00:00:46.494Z,2.12
2023-03-02T00:01:46.497Z,2.09
2023-03-02T00:02:47.528Z,2.01
2023-03-02T00:03:46.513Z,2.12
2023-03-02T00:04:46.428Z,2.11
2023-03-02T00:05:46.425Z,2.14
2023-03-02T00:06:46.414Z,2.15
2023-03-02T00:07:46.388Z,2.11
2023-03-02T00:08:46.380Z,2.08
2023-03-02T00:09:46.389Z,2.11
2023-03-02T00:10:46.455Z,2.08
2023-03-02T00:11:46.367Z,2.05
2023-03-02T00:12:46.357Z,2.04
2023-03-02T00:13:46.336Z,2.15
2023-03-02T00:14:46.321Z,2.11
2023-03-02T00:15:46.350Z,2.18
2023-03-02T00:16:46.298Z,2.12
2023-03-02T00:17:46.310Z,2.01
2023-03-02T00:18:46.304Z,2.08
2023-03-02T00:19:46.272Z,2.07
2023-03-02T00:20:46.257Z,2.01
2023-03-02T00:21:46.231Z,2.01
2023-03-02T00:22:46.254Z,2.02
2023-03-02T00:23:46.232Z,1.93
2023-03-02T00:24:46.231Z,2.04
2023-03-02T00:25:46.213Z,2.05
2023-03-02T00:26:46.192Z,1.93
2023-03-02T00:27:46.180Z,1.86
2023-03-02T00:28:46.150Z,2.02
2023-03-02T00:29:46.154Z,1.93
2023-03-02T00:30:46.163Z,2.00
2023-03-02T00:31:46.205Z,1.93
2023-03-02T00:32:46.164Z,1.90
2023-03-02T00:33:46.129Z,1.95
2023-03-02T00:34:46.127Z,1.82
2023-03-02T00:35:46.099Z,1.82
2023-03-02T00:36:46.095Z,1.79
2023-03-02T00:37:46.057Z,1.68
2023-03-02T00:38:46.054Z,1.61
2023-03-02T00:39:46.033Z,1.64
2023-03-02T00:40:46.047Z,1.63
2023-03-02T00:41:46.021Z,1.64
2023-03-02T00:42:46.012Z,1.63
2023-03-02T00:43:46.001Z,1.47
2023-03-02T00:44:45.968Z,1.39
2023-03-02T00:45:45.986Z,1.39
2023-03-02T00:46:45.998Z,1.46
2023-03-02T00:47:45.965Z,1.44
2023-03-02T00:48:45.937Z,1.39
2023-03-02T00:49:45.925Z,1.50
2023-03-02T00:50:45.901Z,1.53
2023-03-02T00:51:45.924Z,1.56
2023-03-02T00:52:45.905Z,1.52
2023-03-02T00:53:45.897Z,1.43
2023-03-02T00:54:45.849Z,1.46
2023-03-02T00:55:45.885Z,1.29
2023-03-02T00:56:45.861Z,1.35
2023-03-02T00:57:45.833Z,1.31
2023-03-02T00:58:45.858Z,1.43
2023-03-02T00:59:45.814Z,1.39
2023-03-02T01:00:45.831Z,1.44
2023-03-02T01:01:45.782Z,1.39
2023-03-02T01:02:45.911Z,1.47
2023-03-02T01:03:45.763Z,1.44
2023-03-02T01:04:45.756Z,1.42
2023-03-02T01:05:45.763Z,1.28
2023-03-02T01:06:45.750Z,1.35
2023-03-02T01:07:45.726Z,1.29
2023-03-02T01:08:45.698Z,1.25
2023-03-02T01:09:45.736Z,1.29
2023-03-02T01:10:45.700Z,1.24
2023-03-02T01:11:45.719Z,1.32
2023-03-02T01:12:45.700Z,1.25
2023-03-02T01:13:45.662Z,1.34
2023-03-02T01:14:45.644Z,1.29
2023-03-02T01:15:45.783Z,1.31
2023-03-02T01:16:45.644Z,1.25
2023-03-02T01:17:45.614Z,1.34
2023-03-02T01:18:45.592Z,1.31
2023-03-02T01:19:45.608Z,1.29
2023-03-02T01:20:45.586Z,1.31
2023-03-02T01:21:45.591Z,1.28
2023-03-02T01:22:46.597Z,1.28
2023-03-02T01:23:45.578Z,1.43
2023-03-02T01:24:45.538Z,1.46
2023-03-02T01:25:45.585Z,1.50
2023-03-02T01:26:45.530Z,1.52
2023-03-02T01:27:45.524Z,1.54
2023-03-02T01:28:46.520Z,1.50
2023-03-02T01:29:45.493Z,1.61
2023-03-02T01:30:45.456Z,1.53
2023-03-02T01:31:45.480Z,1.57
2023-03-02T01:32:45.474Z,1.52
2023-03-02T01:33:45.436Z,1.49
2023-03-02T01:34:45.428Z,1.53
2023-03-02T01:35:45.406Z,1.42
2023-03-02T01:36:45.435Z,1.44
2023-03-02T01:37:45.400Z,1.44
2023-03-02T01:38:45.468Z,1.43
2023-03-02T01:39:45.374Z,1.42
2023-03-02T01:40:45.356Z,1.46
2023-03-02T01:41:45.342Z,1.42
2023-03-02T01:42:45.463Z,1.46
2023-03-02T01:43:45.328Z,1.43
2023-03-02T01:44:45.307Z,1.43
2023-03-02T01:45:45.495Z,1.46
2023-03-02T01:46:46.283Z,1.42
2023-03-02T01:47:45.288Z,1.43
2023-03-02T01:48:45.403Z,1.36
2023-03-02T01:49:45.264Z,1.42
2023-03-02T01:50:45.260Z,1.38
2023-03-02T01:51:45.246Z,1.49
2023-03-02T01:52:45.234Z,1.46
2023-03-02T01:53:45.188Z,1.46
2023-03-02T01:54:45.199Z,1.42
2023-03-02T01:55:45.189Z,1.39
2023-03-02T01:56:45.189Z,1.38
2023-03-02T01:57:45.175Z,1.52
2023-03-02T01:58:45.209Z,1.54
2023-03-02T01:59:45.141Z,1.56
2023-03-02T02:00:45.136Z,1.44
2023-03-02T02:01:45.136Z,1.53
2023-03-02T02:02:45.161Z,1.44
2023-03-02T02:03:45.161Z,1.44
2023-03-02T02:04:45.086Z,1.49
2023-03-02T02:05:45.089Z,1.47
2023-03-02T02:06:45.261Z,1.44
2023-03-02T02:07:45.060Z,1.53
2023-03-02T02:08:45.048Z,1.49
2023-03-02T02:09:45.040Z,1.46
2023-03-02T02:10:45.046Z,1.44
2023-03-02T02:11:45.028Z,1.47
2023-03-02T02:12:45.002Z,1.47
2023-03-02T02:13:45.017Z,1.42
2023-03-02T02:14:45.004Z,1.38
2023-03-02T02:15:45.032Z,1.38
2023-03-02T02:16:45.066Z,1.29
2023-03-02T02:17:44.993Z,1.24
2023-03-02T02:18:44.960Z,1.38
2023-03-02T02:19:44.916Z,1.28
2023-03-02T02:20:44.927Z,1.28
2023-03-02T02:21:44.939Z,1.21
2023-03-02T02:22:44.888Z,1.32
2023-03-02T02:23:44.870Z,1.29
2023-03-02T02:24:44.856Z,1.42
2023-03-02T02:25:45.881Z,1.39
2023-03-02T02:26:44.843Z,1.35
2023-03-02T02:27:44.819Z,1.35
2023-03-02T02:28:44.824Z,1.42
2023-03-02T02:29:44.836Z,1.39
2023-03-02T02:30:44.826Z,1.44
2023-03-02T02:31:44.839Z,1.36
2023-03-02T02:32:44.824Z,1.32
2023-03-02T02:33:44.778Z,1.32
2023-03-02T02:34:44.773Z,1.32
2023-03-02T02:35:44.809Z,1.38
2023-03-02T02:36:44.748Z,1.36
2023-03-02T02:37:44.716Z,1.42
2023-03-02T02:38:44.748Z,1.42
2023-03-02T02:39:44.733Z,1.34
2023-03-02T02:40:44.690Z,1.36
2023-03-02T02:41:44.753Z,1.31
2023-03-02T02:42:44.694Z,1.36
2023-03-02T02:43:44.689Z,1.35
2023-03-02T02:44:44.644Z,1.34
2023-03-02T02:45:44.681Z,1.36
2023-03-02T02:46:44.665Z,1.31
2023-03-02T02:47:44.622Z,1.32
2023-03-02T02:48:44.598Z,1.34
2023-03-02T02:49:44.621Z,1.39
2023-03-02T02:50:44.620Z,1.28
2023-03-02T02:51:44.618Z,1.29
2023-03-02T02:52:44.595Z,1.28
2023-03-02T02:53:44.554Z,1.34
2023-03-02T02:54:44.588Z,1.29
2023-03-02T02:55:44.549Z,1.21
2023-03-02T02:56:44.530Z,1.21
2023-03-02T02:57:44.514Z,1.32
2023-03-02T02:58:44.505Z,1.28
2023-03-02T02:59:45.525Z,1.14
2023-03-02T03:00:44.457Z,1.08
2023-03-02T03:01:44.521Z,1.14
2023-03-02T03:02:44.608Z,1.20
2023-03-02T03:03:44.441Z,1.17
2023-03-02T03:04:44.559Z,1.14
2023-03-02T03:05:45.455Z,1.10
2023-03-02T03:06:44.391Z,1.07
2023-03-02T03:07:44.393Z,1.07
2023-03-02T03:08:44.409Z,1.07
2023-03-02T03:09:45.263Z,1.04
2023-03-02T03:10:44.367Z,1.14
2023-03-02T03:11:44.402Z,1.17
2023-03-02T03:12:44.322Z,1.14
2023-03-02T03:13:44.351Z,1.16
2023-03-02T03:14:44.368Z,1.13
2023-03-02T03:15:44.361Z,1.07
2023-03-02T03:16:44.393Z,1.04
2023-03-02T03:17:44.290Z,1.02
2023-03-02T03:18:44.266Z,1.08
2023-03-02T03:19:44.326Z,1.06
2023-03-02T03:20:44.250Z,1.10
2023-03-02T03:21:45.359Z,1.10
2023-03-02T03:22:44.267Z,1.02
2023-03-02T03:23:44.215Z,1.04
2023-03-02T03:24:44.190Z,0.93
2023-03-02T03:25:44.201Z,0.84
2023-03-02T03:26:44.205Z,0.92
2023-03-02T03:27:45.206Z,0.84
2023-03-02T03:28:44.162Z,0.74
2023-03-02T03:29:44.150Z,0.88
2023-03-02T03:30:44.192Z,0.86
2023-03-02T03:31:44.105Z,0.93
2023-03-02T03:32:44.128Z,0.86
2023-03-02T03:33:44.099Z,0.81
2023-03-02T03:34:44.088Z,0.90
2023-03-02T03:35:44.101Z,0.90
2023-03-02T03:36:44.074Z,0.75
2023-03-02T03:37:44.052Z,0.84
2023-03-02T03:38:44.047Z,0.78
2023-03-02T03:39:44.071Z,0.80
2023-03-02T03:40:44.013Z,0.75
2023-03-02T03:41:44.046Z,0.62
2023-03-02T03:42:44.004Z,0.57
2023-03-02T03:43:44.012Z,0.72
2023-03-02T03:44:43.990Z,0.70
2023-03-02T03:45:44.024Z,0.60
2023-03-02T03:46:44.000Z,0.64
2023-03-02T03:47:43.951Z,0.72
2023-03-02T03:48:43.948Z,0.70
2023-03-02T03:49:43.958Z,0.60
2023-03-02T03:50:43.916Z,0.52
2023-03-02T03:51:43.925Z,0.63
2023-03-02T03:52:43.887Z,0.57
2023-03-02T03:53:43.891Z,0.56
2023-03-02T03:54:43.891Z,0.52
2023-03-02T03:55:43.874Z,0.49
2023-03-02T03:56:44.857Z,0.56
2023-03-02T03:57:43.824Z,0.51
2023-03-02T03:58:43.918Z,0.45
2023-03-02T03:59:43.842Z,0.57
2023-03-02T04:00:43.829Z,0.57
2023-03-02T04:01:43.831Z,0.52
2023-03-02T04:02:43.833Z,0.49
2023-03-02T04:03:43.827Z,0.49
2023-03-02T04:04:43.849Z,0.44
2023-03-02T04:05:43.824Z,0.62
2023-03-02T04:06:43.759Z,0.71
2023-03-02T04:07:43.782Z,0.64
2023-03-02T04:08:43.733Z,0.70
2023-03-02T04:09:43.734Z,0.81
2023-03-02T04:10:43.714Z,0.81
2023-03-02T04:11:43.744Z,0.81
2023-03-02T04:12:43.681Z,0.81
2023-03-02T04:13:43.674Z,0.88
2023-03-02T04:14:43.663Z,0.86
2023-03-02T04:15:46.957Z,0.92
2023-03-02T04:16:44.673Z,0.86
2023-03-02T04:17:43.652Z,0.86
2023-03-02T04:18:43.681Z,0.86
2023-03-02T04:19:43.621Z,0.90
2023-03-02T04:20:43.600Z,0.89
2023-03-02T04:21:43.577Z,0.95
2023-03-02T04:22:44.177Z,0.92
2023-03-02T04:23:43.566Z,0.95
2023-03-02T04:24:43.602Z,0.98
2023-03-02T04:25:43.569Z,0.90
2023-03-02T04:26:43.533Z,0.92
2023-03-02T04:27:43.498Z,0.88
2023-03-02T04:28:43.528Z,0.81
2023-03-02T04:29:43.538Z,0.81
2023-03-02T04:30:43.546Z,0.84
2023-03-02T04:31:43.526Z,0.82
2023-03-02T04:32:43.477Z,0.86
2023-03-02T04:33:43.443Z,0.81
2023-03-02T04:34:43.438Z,0.77
2023-03-02T04:35:43.554Z,0.86
2023-03-02T04:36:43.437Z,0.86
2023-03-02T04:37:43.433Z,0.77
2023-03-02T04:38:43.377Z,0.80
2023-03-02T04:39:43.430Z,0.82
2023-03-02T04:40:43.434Z,0.80
2023-03-02T04:41:43.384Z,0.78
2023-03-02T04:42:43.399Z,0.78
2023-03-02T04:43:43.360Z,0.70
2023-03-02T04:44:43.337Z,0.63
2023-03-02T04:45:43.364Z,0.80
2023-03-02T04:46:44.808Z,0.74
2023-03-02T04:47:44.320Z,0.77
2023-03-02T04:48:43.304Z,0.80
2023-03-02T04:49:43.282Z,0.72
2023-03-02T04:50:43.281Z,0.72
2023-03-02T04:51:43.306Z,0.81
2023-03-02T04:52:43.292Z,0.74
2023-03-02T04:53:43.275Z,0.78
2023-03-02T04:54:43.291Z,0.77
2023-03-02T04:55:43.257Z,0.80
2023-03-02T04:56:43.247Z,0.82
2023-03-02T04:57:43.260Z,0.80
2023-03-02T04:58:43.225Z,0.72
2023-03-02T04:59:44.091Z,0.80
2023-03-02T05:00:43.178Z,0.84
2023-03-02T05:01:43.181Z,0.77
2023-03-02T05:02:43.236Z,0.86
2023-03-02T05:03:43.179Z,0.86
2023-03-02T05:04:43.247Z,0.88
2023-03-02T05:05:43.159Z,0.86
2023-03-02T05:06:43.113Z,0.81
2023-03-02T05:07:43.137Z,0.86
2023-03-02T05:08:43.141Z,0.89
2023-03-02T05:09:43.138Z,0.93
2023-03-02T05:10:43.089Z,0.89
2023-03-02T05:11:43.087Z,0.82
2023-03-02T05:12:43.162Z,0.88
2023-03-02T05:13:43.061Z,0.88
2023-03-02T05:14:45.429Z,0.86
2023-03-02T05:15:43.022Z,0.81
2023-03-02T05:16:43.105Z,0.82
2023-03-02T05:17:43.214Z,0.70
2023-03-02T05:18:43.008Z,0.88
2023-03-02T05:19:43.004Z,0.78
2023-03-02T05:20:42.993Z,0.77
2023-03-02T05:21:42.954Z,0.77
2023-03-02T05:22:42.959Z,0.72
2023-03-02T05:23:42.945Z,0.64
2023-03-02T05:24:42.929Z,0.82
2023-03-02T05:25:42.942Z,0.80
2023-03-02T05:26:42.911Z,0.74
2023-03-02T05:27:42.933Z,0.81
2023-03-02T05:28:42.923Z,0.72
2023-03-02T05:29:42.908Z,0.77
2023-03-02T05:30:42.872Z,0.75
2023-03-02T05:31:42.974Z,0.77
2023-03-02T05:32:42.999Z,0.71
2023-03-02T05:33:42.846Z,0.72
2023-03-02T05:34:42.899Z,0.68
2023-03-02T05:35:42.952Z,0.70
2023-03-02T05:36:42.876Z,0.74
2023-03-02T05:37:42.874Z,0.70
2023-03-02T05:38:42.896Z,0.57
2023-03-02T05:39:42.826Z,0.64
2023-03-02T05:40:42.815Z,0.63
2023-03-02T05:41:42.773Z,0.68
2023-03-02T05:42:42.723Z,0.72
2023-03-02T05:43:42.716Z,0.64
2023-03-02T05:44:42.779Z,0.67
2023-03-02T05:45:42.748Z,0.56
2023-03-02T05:46:42.755Z,0.63
2023-03-02T05:47:42.721Z,0.56
2023-03-02T05:48:42.710Z,0.67
2023-03-02T05:49:42.665Z,0.57
2023-03-02T05:50:42.655Z,0.49
2023-03-02T05:51:42.730Z,0.53
2023-03-02T05:52:42.676Z,0.59
2023-03-02T05:53:42.699Z,0.49
2023-03-02T05:54:42.668Z,0.60
2023-03-02T05:55:42.644Z,0.56
2023-03-02T05:56:42.703Z,0.62
2023-03-02T05:57:42.611Z,0.60
2023-03-02T05:58:42.563Z,0.64
2023-03-02T05:59:42.695Z,0.64
2023-03-02T06:00:42.612Z,0.60
2023-03-02T06:01:42.688Z,0.68
2023-03-02T06:02:42.640Z,0.70
2023-03-02T06:03:42.551Z,0.71
2023-03-02T06:04:42.565Z,0.72
2023-03-02T06:05:42.680Z,0.74
2023-03-02T06:06:43.266Z,0.72
2023-03-02T06:07:43.202Z,0.77
2023-03-02T06:08:42.995Z,0.84
2023-03-02T06:09:43.266Z,0.84
2023-03-02T06:10:43.161Z,0.82
2023-03-02T06:11:42.542Z,0.88
2023-03-02T06:12:42.884Z,0.84
2023-03-02T06:13:43.655Z,0.88
2023-03-02T06:14:42.877Z,0.90
2023-03-02T06:15:42.758Z,0.89
2023-03-02T06:16:42.573Z,0.84
2023-03-02T06:17:42.446Z,0.95
2023-03-02T06:18:42.347Z,0.90
2023-03-02T06:19:42.417Z,0.77
2023-03-02T06:20:42.373Z,0.77
2023-03-02T06:21:42.413Z,0.86
2023-03-02T06:22:42.428Z,0.98
2023-03-02T06:23:42.424Z,0.96
2023-03-02T06:24:42.289Z,0.99
2023-03-02T06:25:42.434Z,1.17
2023-03-02T06:26:42.274Z,1.14
2023-03-02T06:27:42.340Z,1.13
2023-03-02T06:28:52.260Z,1.29
2023-03-02T06:29:44.385Z,1.36
2023-03-02T06:30:42.555Z,1.26
2023-03-02T06:31:42.338Z,1.39
2023-03-02T06:32:42.275Z,1.47
2023-03-02T06:33:42.318Z,1.63
2023-03-02T06:34:42.213Z,1.83
2023-03-02T06:35:42.343Z,1.98
2023-03-02T06:36:42.282Z,2.15
2023-03-02T06:37:44.175Z,2.23
2023-03-02T06:38:43.185Z,2.32
2023-03-02T06:39:42.280Z,2.38
2023-03-02T06:40:42.125Z,2.50
2023-03-02T06:41:42.148Z,2.55
2023-03-02T06:42:42.129Z,2.63
2023-03-02T06:43:42.060Z,2.71
2023-03-02T06:44:42.112Z,2.86
2023-03-02T06:45:42.135Z,2.80
2023-03-02T06:46:42.065Z,2.84
2023-03-02T06:47:42.050Z,2.84
2023-03-02T06:48:42.041Z,2.92
2023-03-02T06:49:42.035Z,3.08
2023-03-02T06:50:42.036Z,3.05
2023-03-02T06:51:42.025Z,3.13
2023-03-02T06:52:41.989Z,3.10
2023-03-02T06:53:42.005Z,3.10
2023-03-02T06:54:41.999Z,3.10
2023-03-02T06:55:42.219Z,3.12
2023-03-02T06:56:41.938Z,3.28
2023-03-02T06:57:41.938Z,3.37
2023-03-02T06:58:41.930Z,3.56
2023-03-02T06:59:41.917Z,3.68
2023-03-02T07:00:41.915Z,3.90
2023-03-02T07:01:41.975Z,3.95
2023-03-02T07:02:41.976Z,3.93
2023-03-02T07:03:41.910Z,4.08
2023-03-02T07:04:42.649Z,4.08
2023-03-02T07:05:42.737Z,4.25
2023-03-02T07:06:41.847Z,4.18
2023-03-02T07:07:41.856Z,4.39
2023-03-02T07:08:41.829Z,4.61
2023-03-02T07:09:41.791Z,4.59
2023-03-02T07:10:41.875Z,4.49
2023-03-02T07:11:41.775Z,4.69
2023-03-02T07:12:41.796Z,4.79
2023-03-02T07:13:41.761Z,4.86
2023-03-02T07:14:41.740Z,4.75
2023-03-02T07:15:41.735Z,4.83
2023-03-02T07:16:41.765Z,4.93
2023-03-02T07:17:41.721Z,5.19
2023-03-02T07:18:41.708Z,5.17
2023-03-02T07:19:41.728Z,5.49
2023-03-02T07:20:41.686Z,5.56
2023-03-02T07:21:41.690Z,5.41
2023-03-02T07:22:41.639Z,5.55
2023-03-02T07:23:41.669Z,5.78
2023-03-02T07:24:43.493Z,6.05
2023-03-02T07:25:41.656Z,6.32
2023-03-02T07:26:41.593Z,6.50
2023-03-02T07:27:41.617Z,6.27
2023-03-02T07:28:41.590Z,6.27
2023-03-02T07:29:41.569Z,6.36
2023-03-02T07:30:41.591Z,6.51
2023-03-02T07:31:41.585Z,6.63
2023-03-02T07:32:41.829Z,6.64
2023-03-02T07:33:41.511Z,6.39
2023-03-02T07:34:41.538Z,6.45
2023-03-02T07:35:41.531Z,6.38
2023-03-02T07:36:41.508Z,6.25
2023-03-02T07:37:41.562Z,6.03
2023-03-02T07:38:41.512Z,5.96
2023-03-02T07:39:41.499Z,5.88
2023-03-02T07:40:41.572Z,5.78
2023-03-02T07:41:41.430Z,5.69
2023-03-02T07:42:41.414Z,5.47
2023-03-02T07:43:41.449Z,5.27
2023-03-02T07:44:41.406Z,5.32
2023-03-02T07:45:41.396Z,5.55
2023-03-02T07:46:41.378Z,5.47
2023-03-02T07:47:41.368Z,5.65
2023-03-02T07:48:41.387Z,5.73
2023-03-02T07:49:41.365Z,5.73
2023-03-02T07:50:42.132Z,5.47
2023-03-02T07:51:41.369Z,5.48
2023-03-02T07:52:41.298Z,5.38
2023-03-02T07:53:41.300Z,5.37
2023-03-02T07:54:41.305Z,5.60
2023-03-02T07:55:41.309Z,5.67
2023-03-02T07:56:41.265Z,5.51
2023-03-02T07:57:41.276Z,5.51
2023-03-02T07:58:41.275Z,5.35
2023-03-02T07:59:41.236Z,5.65
2023-03-02T08:00:42.709Z,5.88
2023-03-02T08:01:42.222Z,6.17
2023-03-02T08:02:41.305Z,6.32
2023-03-02T08:03:41.196Z,6.60
2023-03-02T08:04:41.168Z,6.73
2023-03-02T08:05:41.210Z,6.89
2023-03-02T08:06:42.614Z,6.99
2023-03-02T08:07:42.190Z,6.91
2023-03-02T08:08:41.129Z,6.97
2023-03-02T08:09:41.168Z,6.99
2023-03-02T08:10:41.101Z,6.81
2023-03-02T08:11:41.139Z,6.89
2023-03-02T08:12:41.132Z,7.09
2023-03-02T08:13:41.086Z,7.36
2023-03-02T08:14:41.247Z,7.71
2023-03-02T08:15:41.104Z,7.99
2023-03-02T08:16:41.170Z,8.07
2023-03-02T08:17:41.046Z,8.10
2023-03-02T08:18:41.021Z,8.12
2023-03-02T08:19:40.992Z,8.06
2023-03-02T08:20:41.039Z,8.45
2023-03-02T08:21:41.015Z,8.52
2023-03-02T08:22:40.984Z,8.89
2023-03-02T08:23:40.994Z,8.78
2023-03-02T08:24:42.062Z,8.91
2023-03-02T08:25:40.931Z,9.01
2023-03-02T08:26:40.946Z,8.91
2023-03-02T08:27:40.935Z,9.23
2023-03-02T08:28:40.952Z,9.55
2023-03-02T08:29:40.922Z,9.63
2023-03-02T08:30:40.932Z,9.49
2023-03-02T08:31:40.938Z,9.34
2023-03-02T08:32:40.944Z,9.44
2023-03-02T08:33:40.877Z,9.37
2023-03-02T08:34:40.842Z,9.49
2023-03-02T08:35:41.246Z,9.60
2023-03-02T08:36:40.857Z,9.68
2023-03-02T08:37:40.833Z,9.77
2023-03-02T08:38:40.809Z,9.67
2023-03-02T08:39:40.794Z,9.68
2023-03-02T08:40:40.804Z,9.24
2023-03-02T08:41:40.789Z,8.88
2023-03-02T08:42:40.803Z,8.78
2023-03-02T08:43:40.737Z,8.73
2023-03-02T08:44:40.783Z,8.55
2023-03-02T08:45:40.797Z,8.68
2023-03-02T08:46:40.717Z,9.10
2023-03-02T08:47:40.735Z,9.49
2023-03-02T08:48:40.729Z,9.60
2023-03-02T08:49:40.721Z,9.48
2023-03-02T08:50:40.690Z,9.30
2023-03-02T08:51:40.667Z,9.32
2023-03-02T08:52:40.818Z,9.45
2023-03-02T08:53:40.691Z,9.50
2023-03-02T08:54:40.799Z,9.67
2023-03-02T08:55:40.660Z,9.75
2023-03-02T08:56:40.611Z,9.98
2023-03-02T08:57:40.662Z,10.14
2023-03-02T08:58:40.663Z,10.39
2023-03-02T08:59:40.652Z,10.43
2023-03-02T09:00:40.676Z,10.10
2023-03-02T09:01:40.727Z,10.07
2023-03-02T09:02:40.643Z,9.99
2023-03-02T09:03:40.560Z,9.68
2023-03-02T09:04:40.752Z,9.67
2023-03-02T09:05:40.578Z,9.60
2023-03-02T09:06:40.588Z,9.16
2023-03-02T09:07:40.564Z,9.19
2023-03-02T09:08:40.524Z,9.37
2023-03-02T09:09:40.548Z,9.42
2023-03-02T09:10:40.537Z,9.04
2023-03-02T09:11:40.537Z,8.97
2023-03-02T09:12:40.492Z,8.89
2023-03-02T09:13:40.547Z,8.86
2023-03-02T09:14:40.457Z,9.10
2023-03-02T09:15:40.437Z,9.22
2023-03-02T09:16:40.515Z,9.65
2023-03-02T09:17:40.474Z,9.73
2023-03-02T09:18:40.482Z,9.85
2023-03-02T09:19:42.118Z,10.06
2023-03-02T09:20:40.414Z,10.34
2023-03-02T09:21:40.381Z,10.57
2023-03-02T09:22:41.376Z,10.68
2023-03-02T09:23:40.380Z,10.95
2023-03-02T09:24:40.322Z,11.27
2023-03-02T09:25:40.342Z,11.51
2023-03-02T09:26:40.322Z,11.39
2023-03-02T09:27:40.345Z,11.77
2023-03-02T09:28:40.324Z,11.72
2023-03-02T09:29:40.302Z,11.31
2023-03-02T09:30:40.324Z,11.31
2023-03-02T09:31:40.266Z,11.12
2023-03-02T09:32:40.441Z,11.19
2023-03-02T09:33:40.288Z,11.35
2023-03-02T09:34:40.212Z,11.35
2023-03-02T09:35:40.271Z,11.35
2023-03-02T09:36:40.216Z,11.51
2023-03-02T09:37:40.693Z,11.60
2023-03-02T09:38:40.239Z,11.57
2023-03-02T09:39:40.264Z,11.60
2023-03-02T09:40:40.155Z,11.75
2023-03-02T09:41:40.233Z,11.67
2023-03-02T09:42:44.152Z,11.84
2023-03-02T09:43:41.165Z,11.79
2023-03-02T09:44:40.158Z,11.94
2023-03-02T09:45:40.183Z,11.90
2023-03-02T09:46:40.119Z,12.31
2023-03-02T09:47:40.146Z,12.59
2023-03-02T09:48:40.114Z,12.62
2023-03-02T09:49:40.087Z,12.41
2023-03-02T09:50:40.093Z,12.54
2023-03-02T09:51:40.039Z,12.63
2023-03-02T09:52:40.090Z,12.63
2023-03-02T09:53:39.997Z,12.63
2023-03-02T09:54:40.165Z,12.46
2023-03-02T09:55:40.014Z,12.51
2023-03-02T09:56:40.026Z,12.41
2023-03-02T09:57:39.959Z,12.33
2023-03-02T09:58:39.956Z,12.51
2023-03-02T09:59:39.923Z,12.92
2023-03-02T10:00:39.961Z,13.44
2023-03-02T10:01:39.956Z,13.25
2023-03-02T10:02:39.949Z,13.04
2023-03-02T10:03:40.032Z,13.36
2023-03-02T10:04:39.957Z,13.32
2023-03-02T10:05:39.843Z,13.12
2023-03-02T10:06:39.906Z,13.27
2023-03-02T10:07:39.901Z,13.14
2023-03-02T10:08:39.907Z,12.91
2023-03-02T10:09:39.881Z,12.84
2023-03-02T10:10:40.793Z,12.87
2023-03-02T10:11:39.791Z,12.88
2023-03-02T10:12:39.818Z,12.95
2023-03-02T10:13:39.797Z,12.94
2023-03-02T10:14:39.784Z,13.14
2023-03-02T10:15:39.742Z,13.21
2023-03-02T10:16:39.795Z,13.35
2023-03-02T10:17:39.731Z,13.35
2023-03-02T10:18:39.830Z,13.57
2023-03-02T10:19:39.848Z,13.80
2023-03-02T10:20:39.721Z,13.86
2023-03-02T10:21:39.790Z,13.99
2023-03-02T10:22:39.698Z,14.08
2023-03-02T10:23:39.721Z,14.34
2023-03-02T10:24:39.745Z,14.17
2023-03-02T10:25:39.616Z,14.30
2023-03-02T10:26:39.695Z,14.80
2023-03-02T10:27:39.674Z,14.86
2023-03-02T10:28:39.576Z,14.72
2023-03-02T10:29:39.642Z,14.44
2023-03-02T10:30:39.582Z,14.38
2023-03-02T10:31:39.607Z,14.41
2023-03-02T10:32:39.536Z,14.53
2023-03-02T10:33:40.562Z,14.53
2023-03-02T10:34:39.614Z,14.52
2023-03-02T10:35:39.601Z,14.97
2023-03-02T10:36:39.597Z,15.15
2023-03-02T10:37:39.529Z,15.31
2023-03-02T10:38:39.507Z,15.64
2023-03-02T10:39:39.492Z,16.06
2023-03-02T10:40:39.524Z,15.98
2023-03-02T10:41:40.694Z,15.89
2023-03-02T10:42:40.503Z,16.42
2023-03-02T10:43:39.483Z,16.14
2023-03-02T10:44:39.448Z,15.73
2023-03-02T10:45:39.507Z,15.35
2023-03-02T10:46:39.488Z,15.88
2023-03-02T10:47:39.397Z,15.81
2023-03-02T10:48:40.927Z,15.30
2023-03-02T10:49:40.457Z,15.27
2023-03-02T10:50:39.396Z,15.43
2023-03-02T10:51:39.355Z,15.71
2023-03-02T10:52:44.142Z,15.86
2023-03-02T10:53:40.352Z,15.92
2023-03-02T10:54:39.360Z,15.98
2023-03-02T10:55:39.289Z,16.16
2023-03-02T10:56:39.384Z,15.96
2023-03-02T10:57:39.265Z,16.11
2023-03-02T10:58:39.245Z,16.34
2023-03-02T10:59:39.286Z,16.10
2023-03-02T11:00:39.301Z,15.96
2023-03-02T11:01:39.350Z,16.23
2023-03-02T11:02:39.307Z,16.37
2023-03-02T11:03:39.238Z,16.45
2023-03-02T11:04:39.267Z,16.45
2023-03-02T11:05:39.205Z,16.47
2023-03-02T11:06:39.203Z,16.27
2023-03-02T11:07:39.201Z,16.32
2023-03-02T11:08:39.153Z,16.30
2023-03-02T11:09:39.157Z,16.16
2023-03-02T11:10:39.175Z,16.36
2023-03-02T11:11:39.191Z,16.48
2023-03-02T11:12:39.232Z,16.01
2023-03-02T11:13:39.155Z,15.60
2023-03-02T11:14:39.148Z,15.52
2023-03-02T11:15:39.119Z,15.40
2023-03-02T11:16:39.072Z,15.31
2023-03-02T11:17:39.170Z,15.44
2023-03-02T11:18:39.165Z,15.56
2023-03-02T11:19:39.059Z,15.48
2023-03-02T11:20:39.076Z,15.28
2023-03-02T11:21:39.018Z,15.35
2023-03-02T11:22:39.027Z,15.25
2023-03-02T11:23:39.046Z,15.04
2023-03-02T11:24:39.113Z,14.31
2023-03-02T11:25:39.099Z,14.09
2023-03-02T11:26:38.947Z,13.87
2023-03-02T11:27:38.968Z,13.83
2023-03-02T11:28:38.976Z,13.68
2023-03-02T11:29:38.973Z,13.53
2023-03-02T11:30:38.940Z,13.54
2023-03-02T11:31:38.970Z,13.57
2023-03-02T11:32:38.974Z,13.86
2023-03-02T11:33:38.941Z,14.06
2023-03-02T11:34:38.925Z,13.99
2023-03-02T11:35:49.149Z,14.02
2023-03-02T11:36:38.900Z,14.29
2023-03-02T11:37:38.854Z,14.26
2023-03-02T11:38:38.823Z,13.69
2023-03-02T11:39:46.423Z,13.80
2023-03-02T11:40:42.851Z,14.05
2023-03-02T11:41:38.796Z,14.11
2023-03-02T11:42:38.800Z,14.12
2023-03-02T11:43:38.817Z,14.38
2023-03-02T11:44:38.772Z,14.34
2023-03-02T11:45:38.752Z,14.12
2023-03-02T11:46:38.814Z,13.55
2023-03-02T11:47:38.732Z,13.55
2023-03-02T11:48:38.717Z,13.86
2023-03-02T11:49:38.684Z,14.21
2023-03-02T11:50:38.728Z,14.38
2023-03-02T11:51:42.381Z,14.42
2023-03-02T11:52:39.772Z,14.46
2023-03-02T11:53:38.708Z,14.63
2023-03-02T11:54:38.641Z,14.75
2023-03-02T11:55:38.788Z,14.79
2023-03-02T11:56:38.618Z,15.03
2023-03-02T11:57:39.699Z,15.30
2023-03-02T11:58:39.647Z,15.40
2023-03-02T11:59:38.623Z,15.55
2023-03-02T12:00:38.586Z,15.84
2023-03-02T12:01:39.820Z,15.96
2023-03-02T12:02:38.541Z,15.89
2023-03-02T12:03:38.608Z,14.83
2023-03-02T12:04:38.564Z,14.44
2023-03-02T12:05:38.618Z,13.73
2023-03-02T12:06:38.495Z,13.63
2023-03-02T12:07:38.495Z,13.71
2023-03-02T12:08:38.502Z,13.99
2023-03-02T12:09:38.455Z,13.31
2023-03-02T12:10:38.486Z,12.99
2023-03-02T12:11:38.506Z,13.59
2023-03-02T12:12:38.470Z,14.19
2023-03-02T12:13:38.471Z,14.60
2023-03-02T12:14:38.384Z,14.83
2023-03-02T12:15:39.807Z,14.85
2023-03-02T12:16:39.828Z,14.23
2023-03-02T12:17:39.460Z,14.35
2023-03-02T12:18:38.360Z,14.49
2023-03-02T12:19:38.793Z,14.75
2023-03-02T12:20:38.398Z,14.85
2023-03-02T12:21:38.333Z,15.20
2023-03-02T12:22:38.302Z,15.27
2023-03-02T12:23:38.358Z,14.87
2023-03-02T12:24:38.342Z,14.86
2023-03-02T12:25:38.281Z,15.01
2023-03-02T12:26:38.355Z,15.09
2023-03-02T12:27:38.295Z,14.98
2023-03-02T12:28:38.221Z,14.90
2023-03-02T12:29:38.269Z,15.15
2023-03-02T12:30:38.253Z,15.22
2023-03-02T12:31:38.296Z,14.94
2023-03-02T12:32:38.294Z,14.83
2023-03-02T12:33:38.231Z,14.87
2023-03-02T12:34:38.169Z,15.05
2023-03-02T12:35:38.241Z,15.07
2023-03-02T12:36:38.162Z,15.04
2023-03-02T12:37:38.166Z,14.93
2023-03-02T12:38:39.176Z,15.01
2023-03-02T12:39:38.109Z,15.07
2023-03-02T12:40:38.123Z,15.07
2023-03-02T12:41:38.180Z,15.03
2023-03-02T12:42:38.116Z,15.20
2023-03-02T12:43:38.158Z,15.25
2023-03-02T12:44:38.097Z,15.48
2023-03-02T12:45:38.694Z,15.46
2023-03-02T12:46:39.717Z,15.48
2023-03-02T12:47:39.233Z,15.28
2023-03-02T12:48:38.184Z,15.52
2023-03-02T12:49:38.126Z,15.53
2023-03-02T12:50:38.001Z,15.73
2023-03-02T12:51:38.122Z,16.06
2023-03-02T12:52:38.082Z,16.23
2023-03-02T12:53:38.111Z,16.03
2023-03-02T12:54:38.072Z,15.99
2023-03-02T12:55:38.006Z,15.62
2023-03-02T12:56:38.256Z,15.40
2023-03-02T12:57:37.934Z,15.23
2023-03-02T12:58:37.912Z,15.12
2023-03-02T12:59:38.144Z,15.16
2023-03-02T13:00:37.863Z,15.13
2023-03-02T13:01:37.888Z,15.44
2023-03-02T13:02:38.028Z,15.19
2023-03-02T13:03:37.838Z,14.95
2023-03-02T13:04:37.856Z,14.90
2023-03-02T13:05:37.852Z,14.74
2023-03-02T13:06:37.834Z,14.12
2023-03-02T13:07:37.907Z,14.16
2023-03-02T13:08:38.067Z,14.36
2023-03-02T13:09:40.139Z,14.46
2023-03-02T13:10:38.785Z,14.60